createdAt,value
2022-10-31T00:01:46.611Z,101647.97
2022-10-31T00:04:13.114Z,101644.47
2022-10-31T00:04:26.302Z,101644.47
2022-10-31T00:06:39.527Z,101656.06
2022-10-31T00:09:06.506Z,101636.72
2022-10-31T00:09:26.312Z,101636.72
2022-10-31T00:11:33.102Z,101660.66
2022-10-31T00:13:59.975Z,101619.84
2022-10-31T00:14:26.301Z,101619.84
2022-10-31T00:16:27.623Z,101598.56
2022-10-31T00:18:59.905Z,101652.47
2022-10-31T00:19:26.342Z,101652.47
2022-10-31T00:21:27.450Z,101659.34
2022-10-31T00:23:53.985Z,101653.31
2022-10-31T00:24:26.317Z,101653.31
2022-10-31T00:26:20.739Z,101573.84
2022-10-31T00:28:47.404Z,101646.59
2022-10-31T00:29:26.303Z,101646.59
2022-10-31T00:31:14.035Z,101642.25
2022-10-31T00:33:41.511Z,101511.56
2022-10-31T00:34:26.337Z,101511.56
2022-10-31T00:36:11.509Z,101610.16
2022-10-31T00:38:38.041Z,101617.69
2022-10-31T00:39:26.361Z,101617.69
2022-10-31T00:41:04.599Z,101537.84
2022-10-31T00:43:30.944Z,101651.00
2022-10-31T00:44:26.299Z,101651.00
2022-10-31T00:45:57.384Z,101520.59
2022-10-31T00:48:23.930Z,101655.25
2022-10-31T00:49:26.305Z,101655.25
2022-10-31T00:50:50.323Z,101702.19
2022-10-31T00:53:16.660Z,101666.41
2022-10-31T00:54:26.353Z,101666.41
2022-10-31T00:55:43.061Z,101639.38
2022-10-31T00:58:09.582Z,101660.22
2022-10-31T00:59:26.332Z,101660.22
2022-10-31T01:00:35.996Z,101681.53
2022-10-31T01:03:02.688Z,101675.28
2022-10-31T01:04:26.355Z,101675.28
2022-10-31T01:05:29.747Z,101668.56
2022-10-31T01:07:56.135Z,101687.91
2022-10-31T01:09:26.311Z,101687.91
2022-10-31T01:10:22.726Z,101630.38
2022-10-31T01:12:50.045Z,101667.91
2022-10-31T01:14:26.310Z,101667.91
2022-10-31T01:15:19.925Z,101671.59
2022-10-31T01:17:46.711Z,101675.56
2022-10-31T01:19:26.530Z,101675.56
2022-10-31T01:20:15.901Z,101473.78
2022-10-31T01:22:42.671Z,101658.56
2022-10-31T01:24:26.332Z,101658.56
2022-10-31T01:25:12.845Z,101636.88
2022-10-31T01:27:39.309Z,101597.38
2022-10-31T01:29:26.318Z,101597.38
2022-10-31T01:30:06.470Z,101644.84
2022-10-31T01:32:33.231Z,101616.72
2022-10-31T01:34:26.323Z,101616.72
2022-10-31T01:35:00.207Z,101656.19
2022-10-31T01:37:26.555Z,101644.09
2022-10-31T01:39:26.321Z,101644.09
2022-10-31T01:39:53.049Z,101642.53
2022-10-31T01:42:21.919Z,101634.69
2022-10-31T01:44:26.320Z,101634.69
2022-10-31T01:44:53.258Z,101635.75
2022-10-31T01:47:29.290Z,101577.75
2022-10-31T01:49:26.325Z,101577.75
2022-10-31T01:50:01.258Z,101573.75
2022-10-31T01:52:40.245Z,101624.34
2022-10-31T01:54:26.331Z,101624.34
2022-10-31T01:55:30.351Z,101639.84
2022-10-31T01:58:03.806Z,101631.69
2022-10-31T01:59:26.325Z,101631.69
2022-10-31T02:00:31.470Z,101572.09
2022-10-31T02:02:58.257Z,101560.91
2022-10-31T02:04:26.346Z,101560.91
2022-10-31T02:05:28.590Z,101639.09
2022-10-31T02:08:03.751Z,101639.28
2022-10-31T02:09:26.387Z,101639.28
2022-10-31T02:10:32.501Z,101637.53
2022-10-31T02:13:00.957Z,101630.59
2022-10-31T02:14:26.335Z,101630.59
2022-10-31T02:15:29.381Z,101589.75
2022-10-31T02:17:55.719Z,101630.78
2022-10-31T02:19:26.354Z,101630.78
2022-10-31T02:20:25.438Z,101595.06
2022-10-31T02:23:29.237Z,101631.88
2022-10-31T02:24:26.325Z,101631.88
2022-10-31T02:26:26.285Z,101635.63
2022-10-31T02:29:11.579Z,101629.66
2022-10-31T02:29:26.321Z,101629.66
2022-10-31T02:31:52.480Z,101629.75
2022-10-31T02:34:26.316Z,101642.16
2022-10-31T02:34:26.443Z,101642.16
2022-10-31T02:37:02.835Z,101662.44
2022-10-31T02:39:26.350Z,101662.44
2022-10-31T02:39:41.849Z,101654.75
2022-10-31T02:42:26.977Z,101648.63
2022-10-31T02:44:26.329Z,101648.63
2022-10-31T02:45:16.622Z,101655.66
2022-10-31T02:47:43.644Z,101593.75
2022-10-31T02:49:26.354Z,101593.75
2022-10-31T02:50:17.124Z,101656.75
2022-10-31T02:52:43.460Z,101664.44
2022-10-31T02:54:26.368Z,101664.44
2022-10-31T02:55:23.439Z,101670.56
2022-10-31T02:57:53.409Z,101644.03
2022-10-31T02:59:26.339Z,101644.03
2022-10-31T03:00:19.913Z,101631.81
2022-10-31T03:03:12.609Z,101621.13
2022-10-31T03:04:26.343Z,101621.13
2022-10-31T03:06:11.012Z,101658.91
2022-10-31T03:08:45.581Z,101647.50
2022-10-31T03:09:26.342Z,101647.50
2022-10-31T03:11:12.007Z,101615.47
2022-10-31T03:14:13.671Z,101671.59
2022-10-31T03:14:26.319Z,101671.59
2022-10-31T03:16:50.693Z,101667.81
2022-10-31T03:19:23.912Z,101647.03
2022-10-31T03:19:26.389Z,101647.03
2022-10-31T03:21:57.134Z,101627.06
2022-10-31T03:24:28.527Z,101646.66
2022-10-31T03:24:28.645Z,101646.66
2022-10-31T03:26:58.602Z,101634.00
2022-10-31T03:29:32.190Z,101649.78
2022-10-31T03:29:32.354Z,101649.78
2022-10-31T03:32:05.439Z,101658.34
2022-10-31T03:34:26.334Z,101658.34
2022-10-31T03:34:32.861Z,101655.72
2022-10-31T03:37:04.420Z,101654.88
2022-10-31T03:39:26.352Z,101654.88
2022-10-31T03:39:32.365Z,101651.50
2022-10-31T03:42:25.408Z,101632.81
2022-10-31T03:44:26.443Z,101632.81
2022-10-31T03:45:07.868Z,101658.72
2022-10-31T03:47:37.761Z,101641.50
2022-10-31T03:49:26.460Z,101641.50
2022-10-31T03:50:06.375Z,101590.94
2022-10-31T03:52:48.020Z,101516.56
2022-10-31T03:54:26.349Z,101516.56
2022-10-31T03:55:27.647Z,101631.22
2022-10-31T03:58:05.033Z,101645.66
2022-10-31T03:59:26.349Z,101645.66
2022-10-31T04:00:33.340Z,101639.91
2022-10-31T04:03:07.033Z,101652.25
2022-10-31T04:04:26.353Z,101652.25
2022-10-31T04:05:35.346Z,101601.03
2022-10-31T04:08:05.190Z,101609.66
2022-10-31T04:09:26.351Z,101609.66
2022-10-31T04:10:33.854Z,101596.38
2022-10-31T04:13:09.645Z,101666.69
2022-10-31T04:14:26.418Z,101666.69
2022-10-31T04:15:38.270Z,101649.78
2022-10-31T04:18:06.293Z,101618.00
2022-10-31T04:19:26.378Z,101618.00
2022-10-31T04:20:34.615Z,101645.81
2022-10-31T04:23:02.260Z,101597.41
2022-10-31T04:24:26.408Z,101597.41
2022-10-31T04:25:29.257Z,101614.19
2022-10-31T04:27:56.424Z,101659.81
2022-10-31T04:29:26.345Z,101659.81
2022-10-31T04:30:23.053Z,101495.66
2022-10-31T04:32:49.445Z,101654.78
2022-10-31T04:34:26.375Z,101654.78
2022-10-31T04:35:16.774Z,101649.78
2022-10-31T04:37:43.235Z,101647.81
2022-10-31T04:39:26.734Z,101647.81
2022-10-31T04:40:10.356Z,101657.16
2022-10-31T04:42:36.757Z,101578.63
2022-10-31T04:44:26.340Z,101578.63
2022-10-31T04:45:03.415Z,101633.59
2022-10-31T04:47:33.336Z,101666.16
2022-10-31T04:49:26.386Z,101666.16
2022-10-31T04:50:00.102Z,101607.25
2022-10-31T04:52:26.486Z,101654.94
2022-10-31T04:54:26.408Z,101654.94
2022-10-31T04:54:52.826Z,101651.53
2022-10-31T04:57:19.441Z,101651.66
2022-10-31T04:59:26.376Z,101651.66
2022-10-31T04:59:45.860Z,101555.75
2022-10-31T05:02:12.301Z,101640.47
2022-10-31T05:04:26.351Z,101640.47
2022-10-31T05:04:38.843Z,101640.47
2022-10-31T05:07:05.226Z,101620.72
2022-10-31T05:09:26.356Z,101620.72
2022-10-31T05:09:31.747Z,101627.56
2022-10-31T05:11:58.088Z,101641.19
2022-10-31T05:14:24.474Z,101647.25
2022-10-31T05:14:26.339Z,101647.25
2022-10-31T05:16:50.909Z,101584.66
2022-10-31T05:19:17.314Z,101660.44
2022-10-31T05:19:26.360Z,101660.44
2022-10-31T05:21:43.876Z,101646.56
2022-10-31T05:24:10.300Z,101448.78
2022-10-31T05:24:26.433Z,101448.78
2022-10-31T05:26:36.646Z,101631.88
2022-10-31T05:29:03.247Z,101642.09
2022-10-31T05:29:26.359Z,101642.09
2022-10-31T05:31:29.710Z,101568.59
2022-10-31T05:33:56.135Z,101614.72
2022-10-31T05:34:26.379Z,101614.72
2022-10-31T05:36:22.463Z,101636.06
2022-10-31T05:38:48.774Z,101559.00
2022-10-31T05:39:26.359Z,101559.00
2022-10-31T05:41:15.238Z,101635.09
2022-10-31T05:43:41.581Z,101624.75
2022-10-31T05:44:26.387Z,101624.75
2022-10-31T05:46:07.914Z,101631.59
2022-10-31T05:48:34.296Z,101636.94
2022-10-31T05:49:26.394Z,101636.94
2022-10-31T05:51:00.686Z,101545.38
2022-10-31T05:53:27.078Z,101553.13
2022-10-31T05:54:26.496Z,101553.13
2022-10-31T05:55:53.504Z,101604.72
2022-10-31T05:58:19.989Z,101583.22
2022-10-31T05:59:26.414Z,101583.22
2022-10-31T06:00:46.489Z,101643.38
2022-10-31T06:03:12.858Z,101626.06
2022-10-31T06:04:26.510Z,101626.06
2022-10-31T06:05:39.421Z,101634.75
2022-10-31T06:08:06.111Z,101640.97
2022-10-31T06:09:26.369Z,101640.97
2022-10-31T06:10:32.625Z,101633.31
2022-10-31T06:12:59.061Z,101540.22
2022-10-31T06:14:26.358Z,101540.22
2022-10-31T06:15:25.449Z,101634.41
2022-10-31T06:18:06.740Z,101632.69
2022-10-31T06:19:26.379Z,101632.69
2022-10-31T06:20:34.323Z,101640.50
2022-10-31T06:23:01.326Z,101592.59
2022-10-31T06:24:26.405Z,101592.59
2022-10-31T06:25:28.357Z,101633.72
2022-10-31T06:27:55.550Z,101600.63
2022-10-31T06:29:26.421Z,101600.63
2022-10-31T06:30:22.217Z,101636.72
2022-10-31T06:32:48.696Z,101569.47
2022-10-31T06:34:26.382Z,101569.47
2022-10-31T06:35:15.266Z,101636.22
2022-10-31T06:37:44.353Z,101619.97
2022-10-31T06:39:26.372Z,101619.97
2022-10-31T06:40:13.182Z,101634.50
2022-10-31T06:42:39.520Z,101576.22
2022-10-31T06:44:26.387Z,101576.22
2022-10-31T06:45:06.250Z,101638.56
2022-10-31T06:47:35.319Z,101592.13
2022-10-31T06:49:26.376Z,101592.13
2022-10-31T06:50:08.192Z,101633.03
2022-10-31T06:52:34.606Z,101568.63
2022-10-31T06:54:26.389Z,101568.63
2022-10-31T06:55:00.909Z,101630.75
2022-10-31T06:57:27.264Z,101641.81
2022-10-31T06:59:26.383Z,101641.81
2022-10-31T06:59:53.625Z,101580.13
2022-10-31T07:02:20.032Z,101645.88
2022-10-31T07:04:26.382Z,101645.88
2022-10-31T07:04:46.508Z,101660.63
2022-10-31T07:07:12.964Z,101603.88
2022-10-31T07:09:26.434Z,101603.88
2022-10-31T07:09:39.372Z,101649.03
2022-10-31T07:12:05.915Z,101655.13
2022-10-31T07:14:26.376Z,101655.13
2022-10-31T07:14:32.277Z,101563.59
2022-10-31T07:16:58.763Z,101655.06
2022-10-31T07:19:25.110Z,101616.50
2022-10-31T07:19:26.664Z,101616.50
2022-10-31T07:21:51.573Z,101598.31
2022-10-31T07:24:17.878Z,101640.13
2022-10-31T07:24:26.381Z,101640.13
2022-10-31T07:26:44.593Z,101652.66
2022-10-31T07:29:11.033Z,101647.34
2022-10-31T07:29:26.390Z,101647.34
2022-10-31T07:31:37.385Z,101656.19
2022-10-31T07:34:03.795Z,101654.13
2022-10-31T07:34:26.490Z,101654.13
2022-10-31T07:36:30.239Z,101606.00
2022-10-31T07:38:56.528Z,101609.22
2022-10-31T07:39:26.377Z,101609.22
2022-10-31T07:41:22.998Z,101655.25
2022-10-31T07:43:49.448Z,101569.34
2022-10-31T07:44:26.378Z,101569.34
2022-10-31T07:46:15.932Z,101654.44
2022-10-31T07:48:42.268Z,101656.63
2022-10-31T07:49:26.453Z,101656.63
2022-10-31T07:51:08.629Z,101656.25
2022-10-31T07:53:35.065Z,101642.06
2022-10-31T07:54:26.405Z,101642.06
2022-10-31T07:56:01.474Z,101640.91
2022-10-31T07:58:27.908Z,101621.03
2022-10-31T07:59:26.396Z,101621.03
2022-10-31T08:00:54.443Z,101631.78
2022-10-31T08:03:20.864Z,101633.34
2022-10-31T08:04:26.393Z,101633.34
2022-10-31T08:05:47.354Z,101616.84
2022-10-31T08:08:15.064Z,101633.06
2022-10-31T08:09:26.415Z,101633.06
2022-10-31T08:10:41.599Z,101630.75
2022-10-31T08:13:13.124Z,101630.47
2022-10-31T08:14:26.458Z,101630.47
2022-10-31T08:15:42.408Z,101627.16
2022-10-31T08:18:15.834Z,101617.25
2022-10-31T08:19:26.504Z,101617.25
2022-10-31T08:20:43.549Z,101619.75
2022-10-31T08:23:12.539Z,101580.13
2022-10-31T08:24:26.469Z,101580.13
2022-10-31T08:25:39.305Z,101610.25
2022-10-31T08:28:07.776Z,101619.09
2022-10-31T08:29:26.398Z,101619.09
2022-10-31T08:30:36.365Z,101614.97
2022-10-31T08:33:12.145Z,101620.84
2022-10-31T08:34:26.394Z,101620.84
2022-10-31T08:35:38.916Z,101605.16
2022-10-31T08:38:05.810Z,101568.84
2022-10-31T08:39:26.424Z,101568.84
2022-10-31T08:40:33.530Z,101598.81
2022-10-31T08:43:02.064Z,101633.19
2022-10-31T08:44:26.386Z,101633.19
2022-10-31T08:45:29.904Z,101633.56
2022-10-31T08:48:05.974Z,101625.66
2022-10-31T08:49:26.393Z,101625.66
2022-10-31T08:50:34.995Z,101617.03
2022-10-31T08:53:06.849Z,101545.22
2022-10-31T08:54:26.403Z,101545.22
2022-10-31T08:55:37.532Z,101598.47
2022-10-31T08:58:06.254Z,101629.81
2022-10-31T08:59:26.418Z,101629.81
2022-10-31T09:00:33.709Z,101578.78
2022-10-31T09:03:02.330Z,101628.34
2022-10-31T09:04:26.395Z,101628.34
2022-10-31T09:05:29.358Z,101582.38
2022-10-31T09:08:00.806Z,101625.03
2022-10-31T09:09:26.398Z,101625.03
2022-10-31T09:10:31.378Z,101632.72
2022-10-31T09:13:12.758Z,101598.88
2022-10-31T09:14:26.415Z,101598.88
2022-10-31T09:15:43.370Z,101629.59
2022-10-31T09:18:10.158Z,101571.97
2022-10-31T09:19:26.573Z,101571.97
2022-10-31T09:20:38.164Z,101646.00
2022-10-31T09:23:11.433Z,101639.25
2022-10-31T09:24:26.450Z,101639.25
2022-10-31T09:25:38.164Z,101565.56
2022-10-31T09:28:06.122Z,101601.28
2022-10-31T09:29:26.491Z,101601.28
2022-10-31T09:30:34.566Z,101634.50
2022-10-31T09:33:06.205Z,101623.34
2022-10-31T09:34:26.419Z,101623.34
2022-10-31T09:35:33.093Z,101627.53
2022-10-31T09:38:02.117Z,101622.59
2022-10-31T09:39:26.425Z,101622.59
2022-10-31T09:40:32.131Z,101567.06
2022-10-31T09:43:03.283Z,101578.84
2022-10-31T09:44:26.425Z,101578.84
2022-10-31T09:45:42.372Z,101615.66
2022-10-31T09:48:42.727Z,101616.09
2022-10-31T09:49:26.540Z,101616.09
2022-10-31T09:51:26.305Z,101573.56
2022-10-31T09:54:05.573Z,101548.59
2022-10-31T09:54:26.437Z,101548.59
2022-10-31T09:56:33.473Z,101608.13
2022-10-31T09:59:02.386Z,101541.75
2022-10-31T09:59:26.443Z,101541.75
2022-10-31T10:01:49.265Z,101590.97
2022-10-31T10:04:47.994Z,101593.72
2022-10-31T10:04:48.132Z,101593.72
2022-10-31T10:07:23.822Z,101590.91
2022-10-31T10:09:26.401Z,101590.91
2022-10-31T10:09:50.325Z,101522.41
2022-10-31T10:13:06.547Z,101541.47
2022-10-31T10:14:26.416Z,101541.47
2022-10-31T10:15:51.537Z,101553.56
2022-10-31T10:18:51.272Z,101555.53
2022-10-31T10:19:26.724Z,101555.53
2022-10-31T10:21:32.931Z,101556.88
2022-10-31T10:24:22.830Z,101500.47
2022-10-31T10:24:26.429Z,101500.47
2022-10-31T10:27:08.059Z,101549.50
2022-10-31T10:29:26.422Z,101549.50
2022-10-31T10:29:45.537Z,101519.25
2022-10-31T10:32:22.961Z,101533.22
2022-10-31T10:34:26.471Z,101533.22
2022-10-31T10:34:59.092Z,101496.00
2022-10-31T10:37:40.580Z,101508.19
2022-10-31T10:39:26.416Z,101508.19
2022-10-31T10:40:16.650Z,101486.91
2022-10-31T10:43:09.968Z,101478.56
2022-10-31T10:44:26.420Z,101478.56
2022-10-31T10:45:57.101Z,101526.75
2022-10-31T10:48:42.480Z,101485.72
2022-10-31T10:49:26.424Z,101485.72
2022-10-31T10:51:32.070Z,101511.38
2022-10-31T10:54:21.743Z,101526.78
2022-10-31T10:54:26.433Z,101526.78
2022-10-31T10:57:13.132Z,101532.56
2022-10-31T10:59:26.439Z,101532.56
2022-10-31T10:59:39.841Z,101511.75
2022-10-31T11:02:18.467Z,101524.75
2022-10-31T11:04:26.428Z,101524.75
2022-10-31T11:04:48.419Z,101517.63
2022-10-31T11:07:14.741Z,101437.88
2022-10-31T11:09:26.460Z,101437.88
2022-10-31T11:09:41.211Z,101495.75
2022-10-31T11:12:25.325Z,101489.50
2022-10-31T11:14:26.445Z,101489.50
2022-10-31T11:14:56.812Z,101486.09
2022-10-31T11:17:31.242Z,101479.63
2022-10-31T11:19:26.717Z,101479.63
2022-10-31T11:20:21.552Z,101485.69
2022-10-31T11:22:49.235Z,101484.31
2022-10-31T11:24:26.430Z,101484.31
2022-10-31T11:25:25.610Z,101489.41
2022-10-31T11:28:10.505Z,101473.75
2022-10-31T11:29:26.435Z,101473.75
2022-10-31T11:30:45.743Z,101458.88
2022-10-31T11:33:20.018Z,101462.84
2022-10-31T11:34:26.431Z,101462.84
2022-10-31T11:35:50.975Z,101444.69
2022-10-31T11:38:23.921Z,101379.66
2022-10-31T11:39:26.561Z,101379.66
2022-10-31T11:41:04.698Z,101429.41
2022-10-31T11:43:31.033Z,101403.56
2022-10-31T11:44:26.541Z,101403.56
2022-10-31T11:45:57.896Z,101383.44
2022-10-31T11:48:26.166Z,101381.28
2022-10-31T11:50:58.239Z,101409.00
2022-10-31T11:53:30.724Z,101394.91
2022-10-31T11:54:26.452Z,101394.91
2022-10-31T11:56:08.217Z,101396.84
2022-10-31T11:58:34.775Z,101326.03
2022-10-31T11:59:26.461Z,101326.03
2022-10-31T12:01:01.164Z,101380.03
2022-10-31T12:03:36.402Z,101372.72
2022-10-31T12:04:26.441Z,101372.72
2022-10-31T12:06:08.544Z,101217.41
2022-10-31T12:08:37.133Z,101361.78
2022-10-31T12:09:26.465Z,101361.78
2022-10-31T12:11:21.595Z,101347.91
2022-10-31T12:14:01.160Z,101341.63
2022-10-31T12:14:26.453Z,101341.63
2022-10-31T12:16:37.680Z,101315.56
2022-10-31T12:19:15.557Z,101336.53
2022-10-31T12:19:26.493Z,101336.53
2022-10-31T12:22:02.674Z,101321.69
2022-10-31T12:24:26.470Z,101321.69
2022-10-31T12:25:10.335Z,101321.31
2022-10-31T12:28:00.826Z,101310.56
2022-10-31T12:29:26.439Z,101310.56
2022-10-31T12:30:47.768Z,101303.41
2022-10-31T12:33:14.624Z,101312.00
2022-10-31T12:34:26.450Z,101312.00
2022-10-31T12:36:14.427Z,101249.66
2022-10-31T12:39:00.152Z,101295.31
2022-10-31T12:39:26.452Z,101295.31
2022-10-31T12:41:45.654Z,101139.16
2022-10-31T12:44:33.606Z,101262.22
2022-10-31T12:44:33.733Z,101262.22
2022-10-31T12:47:07.726Z,101269.59
2022-10-31T12:49:26.464Z,101269.59
2022-10-31T12:49:47.087Z,101250.75
2022-10-31T12:52:27.628Z,101204.63
2022-10-31T12:54:26.529Z,101204.63
2022-10-31T12:55:04.232Z,101246.81
2022-10-31T12:57:30.636Z,101249.00
2022-10-31T12:59:26.481Z,101249.00
2022-10-31T13:00:19.222Z,101250.28
2022-10-31T13:02:51.905Z,101236.97
2022-10-31T13:04:26.474Z,101236.97
2022-10-31T13:05:21.352Z,101229.00
2022-10-31T13:07:58.714Z,101214.16
2022-10-31T13:09:26.512Z,101214.16
2022-10-31T13:10:36.455Z,101232.28
2022-10-31T13:13:24.593Z,101216.09
2022-10-31T13:14:26.465Z,101216.09
2022-10-31T13:16:16.797Z,101191.91
2022-10-31T13:18:48.953Z,101220.59
2022-10-31T13:19:26.543Z,101220.59
2022-10-31T13:21:27.150Z,101212.13
2022-10-31T13:23:57.363Z,101218.69
2022-10-31T13:24:26.477Z,101218.69
2022-10-31T13:26:36.642Z,101224.00
2022-10-31T13:29:24.680Z,101218.31
2022-10-31T13:29:29.919Z,101218.31
2022-10-31T13:31:53.549Z,101194.09
2022-10-31T13:34:39.657Z,101224.28
2022-10-31T13:34:39.850Z,101224.28
2022-10-31T13:37:27.817Z,101217.63
2022-10-31T13:39:26.459Z,101217.63
2022-10-31T13:40:06.067Z,101205.44
2022-10-31T13:42:59.591Z,101194.09
2022-10-31T13:44:26.472Z,101194.09
2022-10-31T13:45:27.669Z,101176.81
2022-10-31T13:48:18.928Z,101179.94
2022-10-31T13:49:26.484Z,101179.94
2022-10-31T13:51:02.263Z,101167.28
2022-10-31T13:53:59.844Z,101167.97
2022-10-31T13:54:26.611Z,101167.97
2022-10-31T13:56:32.728Z,101175.91
2022-10-31T13:59:07.961Z,101176.16
2022-10-31T13:59:26.594Z,101176.16
2022-10-31T14:01:34.961Z,101182.09
2022-10-31T14:04:22.324Z,101124.56
2022-10-31T14:04:26.617Z,101124.56
2022-10-31T14:06:58.187Z,101154.31
2022-10-31T14:09:27.151Z,101148.88
2022-10-31T14:09:27.300Z,101148.88
2022-10-31T14:11:54.378Z,101142.50
2022-10-31T14:14:24.778Z,101136.09
2022-10-31T14:14:26.460Z,101136.09
2022-10-31T14:16:57.291Z,101136.19
2022-10-31T14:19:23.831Z,101124.84
2022-10-31T14:19:26.659Z,101124.84
2022-10-31T14:21:51.553Z,101117.34
2022-10-31T14:24:23.979Z,101104.91
2022-10-31T14:24:26.549Z,101104.91
2022-10-31T14:27:02.702Z,101039.09
2022-10-31T14:29:26.487Z,101039.09
2022-10-31T14:29:31.416Z,101049.47
2022-10-31T14:32:08.428Z,101085.34
2022-10-31T14:34:26.509Z,101085.34
2022-10-31T14:34:38.050Z,101013.91
2022-10-31T14:37:26.348Z,101067.72
2022-10-31T14:39:26.486Z,101067.72
2022-10-31T14:40:11.685Z,101080.16
2022-10-31T14:42:50.420Z,101079.78
2022-10-31T14:44:26.472Z,101079.78
2022-10-31T14:45:35.246Z,101029.88
2022-10-31T14:48:14.208Z,101069.28
2022-10-31T14:49:26.489Z,101069.28
2022-10-31T14:50:46.664Z,101055.03
2022-10-31T14:53:19.602Z,100998.13
2022-10-31T14:54:26.628Z,100998.13
2022-10-31T14:55:50.177Z,101039.97
2022-10-31T14:58:22.640Z,101020.72
2022-10-31T14:59:26.487Z,101020.72
2022-10-31T15:00:53.706Z,100945.38
2022-10-31T15:03:35.253Z,100986.88
2022-10-31T15:04:26.499Z,100986.88
2022-10-31T15:06:06.253Z,100998.22
2022-10-31T15:08:46.537Z,101003.56
2022-10-31T15:09:26.477Z,101003.56
2022-10-31T15:11:14.505Z,101037.38
2022-10-31T15:13:46.344Z,101027.22
2022-10-31T15:14:26.498Z,101027.22
2022-10-31T15:16:15.033Z,101002.09
2022-10-31T15:18:52.992Z,101030.13
2022-10-31T15:19:26.853Z,101030.13
2022-10-31T15:21:21.594Z,101018.16
2022-10-31T15:23:48.556Z,101014.53
2022-10-31T15:24:26.506Z,101014.53
2022-10-31T15:26:24.012Z,101015.59
2022-10-31T15:29:02.837Z,101002.56
2022-10-31T15:29:26.506Z,101002.56
2022-10-31T15:31:29.556Z,100939.41
2022-10-31T15:33:59.495Z,100969.66
2022-10-31T15:34:26.495Z,100969.66
2022-10-31T15:36:29.218Z,100981.41
2022-10-31T15:38:58.679Z,101000.59
2022-10-31T15:39:26.489Z,101000.59
2022-10-31T15:41:37.355Z,100995.41
2022-10-31T15:44:15.348Z,100923.44
2022-10-31T15:44:26.504Z,100923.44
2022-10-31T15:46:42.094Z,100999.47
2022-10-31T15:49:26.835Z,100901.50
2022-10-31T15:49:27.527Z,100901.50
2022-10-31T15:51:54.734Z,100960.09
2022-10-31T15:54:21.445Z,100988.72
2022-10-31T15:54:26.652Z,100988.72
2022-10-31T15:56:48.558Z,100989.16
2022-10-31T15:59:22.680Z,100984.00
2022-10-31T15:59:26.492Z,100984.00
2022-10-31T16:02:03.854Z,100980.09
2022-10-31T16:04:26.580Z,100980.09
2022-10-31T16:04:31.044Z,100986.34
2022-10-31T16:07:22.909Z,100971.25
2022-10-31T16:09:26.512Z,100971.25
2022-10-31T16:10:01.332Z,100937.75
2022-10-31T16:12:37.104Z,100949.38
2022-10-31T16:14:26.554Z,100949.38
2022-10-31T16:15:05.823Z,100959.50
2022-10-31T16:17:32.727Z,100956.34
2022-10-31T16:19:26.661Z,100956.34
2022-10-31T16:20:03.328Z,100967.78
2022-10-31T16:22:35.999Z,100956.91
2022-10-31T16:24:26.505Z,100956.91
2022-10-31T16:25:10.779Z,100980.09
2022-10-31T16:27:39.547Z,100965.84
2022-10-31T16:29:26.511Z,100965.84
2022-10-31T16:30:48.709Z,100976.59
2022-10-31T16:33:30.417Z,100973.22
2022-10-31T16:34:27.173Z,100973.22
2022-10-31T16:36:09.610Z,100972.25
2022-10-31T16:38:42.460Z,100942.16
2022-10-31T16:39:26.513Z,100942.16
2022-10-31T16:41:08.925Z,100942.81
2022-10-31T16:43:35.689Z,100981.22
2022-10-31T16:44:26.516Z,100981.22
2022-10-31T16:46:02.035Z,100889.75
2022-10-31T16:48:28.447Z,100956.25
2022-10-31T16:49:26.515Z,100956.25
2022-10-31T16:50:54.786Z,100978.34
2022-10-31T16:53:21.381Z,100981.09
2022-10-31T16:54:26.542Z,100981.09
2022-10-31T16:55:54.851Z,100978.56
2022-10-31T16:58:44.031Z,100948.56
2022-10-31T16:59:26.518Z,100948.56
2022-10-31T17:01:13.799Z,100951.94
2022-10-31T17:03:40.840Z,100989.59
2022-10-31T17:04:26.646Z,100989.59
2022-10-31T17:06:12.808Z,100926.50
2022-10-31T17:08:39.333Z,100968.56
2022-10-31T17:09:26.538Z,100968.56
2022-10-31T17:11:06.272Z,100961.19
2022-10-31T17:13:34.608Z,100980.53
2022-10-31T17:14:26.564Z,100980.53
2022-10-31T17:16:03.194Z,100983.38
2022-10-31T17:18:30.771Z,100963.09
2022-10-31T17:19:26.697Z,100963.09
2022-10-31T17:21:02.772Z,100986.38
2022-10-31T17:23:29.719Z,100979.38
2022-10-31T17:24:26.539Z,100979.38
2022-10-31T17:25:56.798Z,100920.00
2022-10-31T17:28:23.428Z,100935.34
2022-10-31T17:29:26.533Z,100935.34
2022-10-31T17:30:49.932Z,100950.69
2022-10-31T17:33:17.212Z,100780.94
2022-10-31T17:34:26.551Z,100780.94
2022-10-31T17:35:47.165Z,100974.47
2022-10-31T17:38:13.948Z,100986.13
2022-10-31T17:39:26.527Z,100986.13
2022-10-31T17:40:44.120Z,100986.78
2022-10-31T17:43:11.594Z,100957.13
2022-10-31T17:44:26.522Z,100957.13
2022-10-31T17:45:41.940Z,100939.66
2022-10-31T17:48:12.119Z,100917.13
2022-10-31T17:49:26.545Z,100917.13
2022-10-31T17:50:38.525Z,100953.44
2022-10-31T17:53:05.126Z,100983.09
2022-10-31T17:54:26.620Z,100983.09
2022-10-31T17:55:36.092Z,100914.81
2022-10-31T17:58:05.242Z,100982.84
2022-10-31T17:59:26.540Z,100982.84
2022-10-31T18:00:32.084Z,100982.31
2022-10-31T18:02:58.859Z,100972.06
2022-10-31T18:04:26.535Z,100972.06
2022-10-31T18:05:25.568Z,100977.34
2022-10-31T18:07:52.003Z,100978.19
2022-10-31T18:09:26.535Z,100978.19
2022-10-31T18:10:18.498Z,100973.50
2022-10-31T18:12:44.961Z,100973.19
2022-10-31T18:14:26.523Z,100973.19
2022-10-31T18:15:11.432Z,100940.78
2022-10-31T18:17:41.047Z,100444.53
2022-10-31T18:19:26.823Z,100444.53
2022-10-31T18:20:09.913Z,100971.34
2022-10-31T18:22:36.795Z,100892.28
2022-10-31T18:24:26.540Z,100892.28
2022-10-31T18:25:04.744Z,100968.66
2022-10-31T18:27:31.153Z,100963.16
2022-10-31T18:29:26.579Z,100963.16
2022-10-31T18:29:57.491Z,100918.22
2022-10-31T18:32:23.913Z,100877.00
2022-10-31T18:34:26.527Z,100877.00
2022-10-31T18:34:50.277Z,100964.66
2022-10-31T18:37:16.612Z,100959.94
2022-10-31T18:39:26.522Z,100959.94
2022-10-31T18:39:42.925Z,100916.06
2022-10-31T18:42:09.261Z,100880.94
2022-10-31T18:44:26.523Z,100880.94
2022-10-31T18:44:35.587Z,100949.13
2022-10-31T18:47:01.998Z,100876.25
2022-10-31T18:49:26.578Z,100876.25
2022-10-31T18:49:32.611Z,100957.72
2022-10-31T18:51:59.730Z,100915.72
2022-10-31T18:54:26.271Z,100950.19
2022-10-31T18:54:26.529Z,100950.19
2022-10-31T18:56:52.690Z,100950.84
2022-10-31T18:59:19.243Z,100911.66
2022-10-31T18:59:26.537Z,100911.66
2022-10-31T19:01:45.676Z,100956.59
2022-10-31T19:04:12.327Z,100958.94
2022-10-31T19:04:26.554Z,100958.94
2022-10-31T19:06:38.664Z,100959.03
2022-10-31T19:09:10.573Z,100959.22
2022-10-31T19:09:26.546Z,100959.22
2022-10-31T19:11:37.843Z,100967.94
2022-10-31T19:14:04.685Z,100901.09
2022-10-31T19:14:26.535Z,100901.09